sensor_id;sensor_type;location;lat;lon;timestamp;P1;durP1;ratioP1;P2;durP2;ratioP2
17253;SDS011;32542;52.832;13.816;2023-06-19T00:00:16;6.05;;;4.75;;
17253;SDS011;32542;52.832;13.816;2023-06-19T00:03:20;7.00;;;5.10;;
17253;SDS011;32542;52.832;13.816;2023-06-19T00:06:23;6.00;;;5.15;;
17253;SDS011;32542;52.832;13.816;2023-06-19T00:09:26;5.65;;;5.05;;
17253;SDS011;32542;52.832;13.816;2023-06-19T00:12:30;5.28;;;4.40;;
17253;SDS011;32542;52.832;13.816;2023-06-19T00:15:33;5.90;;;4.70;;
17253;SDS011;32542;52.832;13.816;2023-06-19T00:18:36;5.88;;;4.93;;
17253;SDS011;32542;52.832;13.816;2023-06-19T00:21:42;5.50;;;4.70;;
17253;SDS011;32542;52.832;13.816;2023-06-19T00:24:45;5.43;;;4.90;;
17253;SDS011;32542;52.832;13.816;2023-06-19T00:27:49;9.43;;;4.85;;
17253;SDS011;32542;52.832;13.816;2023-06-19T00:30:52;8.05;;;4.97;;
17253;SDS011;32542;52.832;13.816;2023-06-19T00:33:56;5.50;;;4.80;;
17253;SDS011;32542;52.832;13.816;2023-06-19T00:36:59;6.40;;;4.88;;
17253;SDS011;32542;52.832;13.816;2023-06-19T00:40:02;5.50;;;4.72;;
17253;SDS011;32542;52.832;13.816;2023-06-19T00:43:07;6.22;;;4.72;;
17253;SDS011;32542;52.832;13.816;2023-06-19T00:46:10;5.40;;;4.80;;
17253;SDS011;32542;52.832;13.816;2023-06-19T00:49:13;5.82;;;4.90;;
17253;SDS011;32542;52.832;13.816;2023-06-19T00:52:17;5.55;;;4.72;;
17253;SDS011;32542;52.832;13.816;2023-06-19T00:55:20;10.77;;;5.25;;
17253;SDS011;32542;52.832;13.816;2023-06-19T00:58:25;6.82;;;5.05;;
17253;SDS011;32542;52.832;13.816;2023-06-19T01:01:29;8.48;;;5.35;;
17253;SDS011;32542;52.832;13.816;2023-06-19T01:04:32;6.20;;;5.07;;
17253;SDS011;32542;52.832;13.816;2023-06-19T01:07:37;8.43;;;5.15;;
17253;SDS011;32542;52.832;13.816;2023-06-19T01:10:47;5.85;;;4.65;;
17253;SDS011;32542;52.832;13.816;2023-06-19T01:13:58;8.45;;;5.38;;
17253;SDS011;32542;52.832;13.816;2023-06-19T01:17:02;7.50;;;4.63;;
17253;SDS011;32542;52.832;13.816;2023-06-19T01:20:07;7.03;;;4.97;;
17253;SDS011;32542;52.832;13.816;2023-06-19T01:23:14;6.90;;;4.43;;
17253;SDS011;32542;52.832;13.816;2023-06-19T01:26:17;7.95;;;5.13;;
17253;SDS011;32542;52.832;13.816;2023-06-19T01:29:20;9.60;;;4.97;;
17253;SDS011;32542;52.832;13.816;2023-06-19T01:32:25;5.53;;;4.40;;
17253;SDS011;32542;52.832;13.816;2023-06-19T01:35:37;6.40;;;5.22;;
17253;SDS011;32542;52.832;13.816;2023-06-19T01:38:43;6.25;;;4.90;;
17253;SDS011;32542;52.832;13.816;2023-06-19T01:41:47;6.35;;;5.07;;
17253;SDS011;32542;52.832;13.816;2023-06-19T01:44:51;8.30;;;4.65;;
17253;SDS011;32542;52.832;13.816;2023-06-19T01:47:55;5.93;;;4.70;;
17253;SDS011;32542;52.832;13.816;2023-06-19T01:50:58;5.60;;;5.00;;
17253;SDS011;32542;52.832;13.816;2023-06-19T01:54:02;5.80;;;4.90;;
17253;SDS011;32542;52.832;13.816;2023-06-19T01:57:06;6.10;;;5.13;;
17253;SDS011;32542;52.832;13.816;2023-06-19T02:00:10;7.45;;;5.20;;
17253;SDS011;32542;52.832;13.816;2023-06-19T02:03:14;5.15;;;4.55;;
17253;SDS011;32542;52.832;13.816;2023-06-19T02:06:17;6.60;;;4.57;;
17253;SDS011;32542;52.832;13.816;2023-06-19T02:09:22;5.38;;;4.88;;
17253;SDS011;32542;52.832;13.816;2023-06-19T02:12:25;5.32;;;4.82;;
17253;SDS011;32542;52.832;13.816;2023-06-19T02:15:29;6.93;;;4.70;;
17253;SDS011;32542;52.832;13.816;2023-06-19T02:18:32;5.80;;;5.20;;
17253;SDS011;32542;52.832;13.816;2023-06-19T02:21:35;6.68;;;5.30;;
17253;SDS011;32542;52.832;13.816;2023-06-19T02:24:39;6.90;;;5.25;;
17253;SDS011;32542;52.832;13.816;2023-06-19T02:27:42;6.28;;;5.07;;
17253;SDS011;32542;52.832;13.816;2023-06-19T02:30:45;5.95;;;5.20;;
17253;SDS011;32542;52.832;13.816;2023-06-19T02:33:48;5.95;;;5.20;;
17253;SDS011;32542;52.832;13.816;2023-06-19T02:36:53;6.05;;;4.60;;
17253;SDS011;32542;52.832;13.816;2023-06-19T02:39:57;6.15;;;5.10;;
17253;SDS011;32542;52.832;13.816;2023-06-19T02:43:00;8.65;;;5.20;;
17253;SDS011;32542;52.832;13.816;2023-06-19T02:46:03;5.28;;;4.78;;
17253;SDS011;32542;52.832;13.816;2023-06-19T02:49:08;5.63;;;4.93;;
17253;SDS011;32542;52.832;13.816;2023-06-19T02:52:11;5.22;;;4.72;;
17253;SDS011;32542;52.832;13.816;2023-06-19T02:55:15;5.93;;;5.30;;
17253;SDS011;32542;52.832;13.816;2023-06-19T02:58:18;6.78;;;5.03;;
17253;SDS011;32542;52.832;13.816;2023-06-19T03:01:21;6.43;;;5.30;;
17253;SDS011;32542;52.832;13.816;2023-06-19T03:04:24;7.50;;;5.47;;
17253;SDS011;32542;52.832;13.816;2023-06-19T03:07:29;7.93;;;5.22;;
17253;SDS011;32542;52.832;13.816;2023-06-19T03:10:35;6.53;;;5.00;;
17253;SDS011;32542;52.832;13.816;2023-06-19T03:13:43;5.93;;;4.82;;
17253;SDS011;32542;52.832;13.816;2023-06-19T03:16:48;6.25;;;5.35;;
17253;SDS011;32542;52.832;13.816;2023-06-19T03:19:51;7.35;;;4.93;;
17253;SDS011;32542;52.832;13.816;2023-06-19T03:22:54;5.90;;;4.93;;
17253;SDS011;32542;52.832;13.816;2023-06-19T03:26:00;6.32;;;4.70;;
17253;SDS011;32542;52.832;13.816;2023-06-19T03:29:03;6.25;;;5.35;;
17253;SDS011;32542;52.832;13.816;2023-06-19T03:32:29;5.72;;;5.13;;
17253;SDS011;32542;52.832;13.816;2023-06-19T03:35:34;7.38;;;4.97;;
17253;SDS011;32542;52.832;13.816;2023-06-19T03:38:37;6.72;;;5.15;;
17253;SDS011;32542;52.832;13.816;2023-06-19T03:41:43;7.07;;;5.05;;
17253;SDS011;32542;52.832;13.816;2023-06-19T03:44:46;5.85;;;5.25;;
17253;SDS011;32542;52.832;13.816;2023-06-19T03:47:49;6.60;;;5.35;;
17253;SDS011;32542;52.832;13.816;2023-06-19T03:50:53;7.05;;;5.30;;
17253;SDS011;32542;52.832;13.816;2023-06-19T03:53:56;6.35;;;4.80;;
17253;SDS011;32542;52.832;13.816;2023-06-19T03:57:01;5.40;;;4.78;;
17253;SDS011;32542;52.832;13.816;2023-06-19T04:00:05;6.75;;;5.13;;
17253;SDS011;32542;52.832;13.816;2023-06-19T04:03:12;6.15;;;5.00;;
17253;SDS011;32542;52.832;13.816;2023-06-19T04:06:15;6.00;;;5.40;;
17253;SDS011;32542;52.832;13.816;2023-06-19T04:09:18;6.25;;;5.07;;
17253;SDS011;32542;52.832;13.816;2023-06-19T04:12:23;7.78;;;5.50;;
17253;SDS011;32542;52.832;13.816;2023-06-19T04:15:27;6.22;;;5.30;;
17253;SDS011;32542;52.832;13.816;2023-06-19T04:18:29;6.28;;;4.82;;
17253;SDS011;32542;52.832;13.816;2023-06-19T04:21:32;6.20;;;5.47;;
17253;SDS011;32542;52.832;13.816;2023-06-19T04:24:35;7.95;;;5.30;;
17253;SDS011;32542;52.832;13.816;2023-06-19T04:27:40;6.88;;;5.50;;
17253;SDS011;32542;52.832;13.816;2023-06-19T04:30:43;6.80;;;5.40;;
17253;SDS011;32542;52.832;13.816;2023-06-19T04:33:45;5.60;;;5.07;;
17253;SDS011;32542;52.832;13.816;2023-06-19T04:36:48;6.65;;;5.78;;
17253;SDS011;32542;52.832;13.816;2023-06-19T04:39:51;8.18;;;5.35;;
17253;SDS011;32542;52.832;13.816;2023-06-19T04:42:55;7.72;;;5.82;;
17253;SDS011;32542;52.832;13.816;2023-06-19T04:45:58;6.80;;;5.50;;
17253;SDS011;32542;52.832;13.816;2023-06-19T04:49:01;7.35;;;5.53;;
17253;SDS011;32542;52.832;13.816;2023-06-19T04:52:05;6.82;;;5.60;;
17253;SDS011;32542;52.832;13.816;2023-06-19T04:55:08;7.32;;;5.65;;
17253;SDS011;32542;52.832;13.816;2023-06-19T04:58:13;9.65;;;5.40;;
17253;SDS011;32542;52.832;13.816;2023-06-19T05:01:16;7.93;;;6.82;;
17253;SDS011;32542;52.832;13.816;2023-06-19T05:04:24;8.20;;;6.03;;
17253;SDS011;32542;52.832;13.816;2023-06-19T05:07:27;8.40;;;5.38;;
17253;SDS011;32542;52.832;13.816;2023-06-19T05:10:30;6.25;;;5.30;;
17253;SDS011;32542;52.832;13.816;2023-06-19T05:13:34;6.00;;;5.03;;
17253;SDS011;32542;52.832;13.816;2023-06-19T05:16:37;6.20;;;5.60;;
17253;SDS011;32542;52.832;13.816;2023-06-19T05:19:40;7.63;;;5.35;;
17253;SDS011;32542;52.832;13.816;2023-06-19T05:22:43;8.57;;;5.07;;
17253;SDS011;32542;52.832;13.816;2023-06-19T05:25:46;7.20;;;5.40;;
17253;SDS011;32542;52.832;13.816;2023-06-19T05:28:50;10.80;;;6.03;;
17253;SDS011;32542;52.832;13.816;2023-06-19T05:31:53;7.32;;;5.80;;
17253;SDS011;32542;52.832;13.816;2023-06-19T05:34:56;8.10;;;5.53;;
17253;SDS011;32542;52.832;13.816;2023-06-19T05:37:59;6.50;;;5.68;;
17253;SDS011;32542;52.832;13.816;2023-06-19T05:41:02;8.15;;;5.85;;
17253;SDS011;32542;52.832;13.816;2023-06-19T05:44:06;6.40;;;5.72;;
17253;SDS011;32542;52.832;13.816;2023-06-19T05:47:09;7.13;;;5.50;;
17253;SDS011;32542;52.832;13.816;2023-06-19T05:50:13;7.70;;;5.88;;
17253;SDS011;32542;52.832;13.816;2023-06-19T05:53:16;6.65;;;5.75;;
17253;SDS011;32542;52.832;13.816;2023-06-19T05:56:18;6.25;;;5.63;;
17253;SDS011;32542;52.832;13.816;2023-06-19T05:59:23;7.45;;;5.47;;
17253;SDS011;32542;52.832;13.816;2023-06-19T06:02:26;7.38;;;5.60;;
17253;SDS011;32542;52.832;13.816;2023-06-19T06:05:30;8.27;;;5.50;;
17253;SDS011;32542;52.832;13.816;2023-06-19T06:08:33;6.28;;;5.68;;
17253;SDS011;32542;52.832;13.816;2023-06-19T06:11:36;6.97;;;5.45;;
17253;SDS011;32542;52.832;13.816;2023-06-19T06:14:41;7.10;;;5.57;;
17253;SDS011;32542;52.832;13.816;2023-06-19T06:17:44;8.88;;;6.10;;
17253;SDS011;32542;52.832;13.816;2023-06-19T06:20:48;6.13;;;5.50;;
17253;SDS011;32542;52.832;13.816;2023-06-19T06:23:50;7.63;;;5.82;;
17253;SDS011;32542;52.832;13.816;2023-06-19T06:26:54;6.78;;;5.95;;
17253;SDS011;32542;52.832;13.816;2023-06-19T06:29:58;7.55;;;6.07;;
17253;SDS011;32542;52.832;13.816;2023-06-19T06:33:02;8.88;;;6.22;;
17253;SDS011;32542;52.832;13.816;2023-06-19T06:36:05;6.82;;;5.57;;
17253;SDS011;32542;52.832;13.816;2023-06-19T06:39:09;7.85;;;6.47;;
17253;SDS011;32542;52.832;13.816;2023-06-19T06:42:13;10.55;;;6.35;;
17253;SDS011;32542;52.832;13.816;2023-06-19T06:45:17;8.63;;;6.05;;
17253;SDS011;32542;52.832;13.816;2023-06-19T06:48:20;9.07;;;6.72;;
17253;SDS011;32542;52.832;13.816;2023-06-19T06:51:23;8.35;;;6.10;;
17253;SDS011;32542;52.832;13.816;2023-06-19T06:54:25;8.30;;;6.55;;
17253;SDS011;32542;52.832;13.816;2023-06-19T06:57:28;10.98;;;6.60;;
17253;SDS011;32542;52.832;13.816;2023-06-19T07:00:32;7.70;;;6.10;;
17253;SDS011;32542;52.832;13.816;2023-06-19T07:03:35;7.60;;;6.15;;
17253;SDS011;32542;52.832;13.816;2023-06-19T07:06:38;9.10;;;5.93;;
17253;SDS011;32542;52.832;13.816;2023-06-19T07:09:41;7.50;;;6.68;;
17253;SDS011;32542;52.832;13.816;2023-06-19T07:12:44;10.48;;;6.60;;
17253;SDS011;32542;52.832;13.816;2023-06-19T07:15:49;7.60;;;6.50;;
17253;SDS011;32542;52.832;13.816;2023-06-19T07:18:52;8.18;;;6.50;;
17253;SDS011;32542;52.832;13.816;2023-06-19T07:21:55;8.02;;;6.45;;
17253;SDS011;32542;52.832;13.816;2023-06-19T07:24:58;7.47;;;6.68;;
17253;SDS011;32542;52.832;13.816;2023-06-19T07:28:01;7.82;;;6.90;;
17253;SDS011;32542;52.832;13.816;2023-06-19T07:31:07;14.90;;;7.65;;
17253;SDS011;32542;52.832;13.816;2023-06-19T07:34:10;8.63;;;7.18;;
17253;SDS011;32542;52.832;13.816;2023-06-19T07:37:13;9.25;;;7.10;;
17253;SDS011;32542;52.832;13.816;2023-06-19T07:40:19;9.40;;;7.93;;
17253;SDS011;32542;52.832;13.816;2023-06-19T07:43:22;12.93;;;7.30;;
17253;SDS011;32542;52.832;13.816;2023-06-19T07:46:26;9.75;;;6.93;;
17253;SDS011;32542;52.832;13.816;2023-06-19T07:49:29;11.23;;;7.30;;
17253;SDS011;32542;52.832;13.816;2023-06-19T07:52:32;12.02;;;7.30;;
17253;SDS011;32542;52.832;13.816;2023-06-19T07:55:35;10.00;;;7.57;;
17253;SDS011;32542;52.832;13.816;2023-06-19T07:58:38;8.73;;;7.57;;
17253;SDS011;32542;52.832;13.816;2023-06-19T08:01:42;7.90;;;6.82;;
17253;SDS011;32542;52.832;13.816;2023-06-19T08:04:46;12.38;;;7.65;;
17253;SDS011;32542;52.832;13.816;2023-06-19T08:07:49;10.02;;;8.18;;
17253;SDS011;32542;52.832;13.816;2023-06-19T08:10:52;9.40;;;7.90;;
17253;SDS011;32542;52.832;13.816;2023-06-19T08:13:55;10.65;;;8.05;;
17253;SDS011;32542;52.832;13.816;2023-06-19T08:16:59;9.57;;;7.50;;
17253;SDS011;32542;52.832;13.816;2023-06-19T08:20:02;10.20;;;7.18;;
17253;SDS011;32542;52.832;13.816;2023-06-19T08:23:06;10.18;;;7.03;;
17253;SDS011;32542;52.832;13.816;2023-06-19T08:26:09;12.73;;;7.30;;
17253;SDS011;32542;52.832;13.816;2023-06-19T08:29:12;17.55;;;7.47;;
17253;SDS011;32542;52.832;13.816;2023-06-19T08:32:17;13.93;;;7.32;;
17253;SDS011;32542;52.832;13.816;2023-06-19T08:35:20;9.82;;;7.35;;
17253;SDS011;32542;52.832;13.816;2023-06-19T08:38:22;8.73;;;7.07;;
17253;SDS011;32542;52.832;13.816;2023-06-19T08:41:25;17.63;;;7.90;;
17253;SDS011;32542;52.832;13.816;2023-06-19T08:44:29;19.85;;;8.15;;
17253;SDS011;32542;52.832;13.816;2023-06-19T08:47:33;13.35;;;7.88;;
17253;SDS011;32542;52.832;13.816;2023-06-19T08:50:37;12.43;;;7.75;;
17253;SDS011;32542;52.832;13.816;2023-06-19T08:53:44;14.52;;;8.20;;
17253;SDS011;32542;52.832;13.816;2023-06-19T08:56:48;11.60;;;7.60;;
17253;SDS011;32542;52.832;13.816;2023-06-19T08:59:51;10.43;;;7.43;;
17253;SDS011;32542;52.832;13.816;2023-06-19T09:03:00;11.52;;;8.18;;
17253;SDS011;32542;52.832;13.816;2023-06-19T09:06:14;13.73;;;7.47;;
17253;SDS011;32542;52.832;13.816;2023-06-19T09:09:18;14.95;;;8.55;;
17253;SDS011;32542;52.832;13.816;2023-06-19T09:12:22;15.73;;;8.95;;
17253;SDS011;32542;52.832;13.816;2023-06-19T09:15:34;22.67;;;8.70;;
17253;SDS011;32542;52.832;13.816;2023-06-19T09:18:44;26.55;;;10.02;;
17253;SDS011;32542;52.832;13.816;2023-06-19T09:21:51;18.27;;;8.93;;
17253;SDS011;32542;52.832;13.816;2023-06-19T09:24:54;20.50;;;9.07;;
17253;SDS011;32542;52.832;13.816;2023-06-19T09:28:02;18.55;;;8.75;;
17253;SDS011;32542;52.832;13.816;2023-06-19T09:31:06;19.13;;;9.57;;
17253;SDS011;32542;52.832;13.816;2023-06-19T09:34:10;20.85;;;8.75;;
17253;SDS011;32542;52.832;13.816;2023-06-19T09:37:13;15.70;;;8.80;;
17253;SDS011;32542;52.832;13.816;2023-06-19T09:40:16;13.65;;;8.57;;
17253;SDS011;32542;52.832;13.816;2023-06-19T09:43:21;18.73;;;8.70;;
17253;SDS011;32542;52.832;13.816;2023-06-19T09:46:26;16.15;;;8.65;;
17253;SDS011;32542;52.832;13.816;2023-06-19T09:49:34;17.25;;;8.40;;
17253;SDS011;32542;52.832;13.816;2023-06-19T09:52:38;14.60;;;9.18;;
17253;SDS011;32542;52.832;13.816;2023-06-19T09:55:43;13.88;;;9.25;;
17253;SDS011;32542;52.832;13.816;2023-06-19T09:58:46;21.55;;;9.93;;
17253;SDS011;32542;52.832;13.816;2023-06-19T10:01:50;13.77;;;9.00;;
17253;SDS011;32542;52.832;13.816;2023-06-19T10:04:55;18.60;;;9.77;;
17253;SDS011;32542;52.832;13.816;2023-06-19T10:07:59;20.65;;;10.23;;
17253;SDS011;32542;52.832;13.816;2023-06-19T10:11:03;18.42;;;10.57;;
17253;SDS011;32542;52.832;13.816;2023-06-19T10:14:06;18.70;;;9.82;;
17253;SDS011;32542;52.832;13.816;2023-06-19T10:17:09;15.55;;;9.32;;
17253;SDS011;32542;52.832;13.816;2023-06-19T10:20:25;15.98;;;8.90;;
17253;SDS011;32542;52.832;13.816;2023-06-19T10:23:36;16.05;;;9.63;;
17253;SDS011;32542;52.832;13.816;2023-06-19T10:26:39;16.40;;;10.57;;
17253;SDS011;32542;52.832;13.816;2023-06-19T10:29:42;16.17;;;9.43;;
17253;SDS011;32542;52.832;13.816;2023-06-19T10:33:03;20.20;;;10.00;;
17253;SDS011;32542;52.832;13.816;2023-06-19T10:36:14;14.40;;;9.52;;
17253;SDS011;32542;52.832;13.816;2023-06-19T10:39:18;21.92;;;10.05;;
17253;SDS011;32542;52.832;13.816;2023-06-19T10:42:22;16.65;;;9.07;;
17253;SDS011;32542;52.832;13.816;2023-06-19T10:45:25;19.58;;;10.55;;
17253;SDS011;32542;52.832;13.816;2023-06-19T10:48:30;41.13;;;11.30;;
17253;SDS011;32542;52.832;13.816;2023-06-19T10:51:35;30.73;;;11.13;;
17253;SDS011;32542;52.832;13.816;2023-06-19T10:54:38;31.05;;;11.23;;
17253;SDS011;32542;52.832;13.816;2023-06-19T10:57:44;23.58;;;10.82;;
17253;SDS011;32542;52.832;13.816;2023-06-19T11:00:48;30.80;;;10.80;;
17253;SDS011;32542;52.832;13.816;2023-06-19T11:03:51;40.22;;;11.75;;
17253;SDS011;32542;52.832;13.816;2023-06-19T11:06:55;28.15;;;11.85;;
17253;SDS011;32542;52.832;13.816;2023-06-19T11:09:59;24.85;;;11.55;;
17253;SDS011;32542;52.832;13.816;2023-06-19T11:13:02;17.33;;;11.02;;
17253;SDS011;32542;52.832;13.816;2023-06-19T11:16:04;25.02;;;12.00;;
17253;SDS011;32542;52.832;13.816;2023-06-19T11:19:07;17.30;;;11.65;;
17253;SDS011;32542;52.832;13.816;2023-06-19T11:22:13;21.88;;;11.73;;
17253;SDS011;32542;52.832;13.816;2023-06-19T11:25:15;18.65;;;11.40;;
17253;SDS011;32542;52.832;13.816;2023-06-19T11:28:18;18.60;;;11.82;;
17253;SDS011;32542;52.832;13.816;2023-06-19T11:31:27;19.67;;;12.32;;
17253;SDS011;32542;52.832;13.816;2023-06-19T11:34:31;18.30;;;11.82;;
17253;SDS011;32542;52.832;13.816;2023-06-19T11:37:35;25.42;;;12.75;;
17253;SDS011;32542;52.832;13.816;2023-06-19T11:40:39;17.77;;;12.68;;
17253;SDS011;32542;52.832;13.816;2023-06-19T11:43:42;22.48;;;13.27;;
17253;SDS011;32542;52.832;13.816;2023-06-19T11:46:45;17.92;;;13.27;;
17253;SDS011;32542;52.832;13.816;2023-06-19T11:49:49;19.20;;;12.48;;
17253;SDS011;32542;52.832;13.816;2023-06-19T11:52:54;19.25;;;13.50;;
17253;SDS011;32542;52.832;13.816;2023-06-19T11:55:58;24.80;;;13.65;;
17253;SDS011;32542;52.832;13.816;2023-06-19T11:59:01;22.25;;;13.10;;
17253;SDS011;32542;52.832;13.816;2023-06-19T12:02:05;17.10;;;12.60;;
17253;SDS011;32542;52.832;13.816;2023-06-19T12:05:09;16.95;;;12.20;;
17253;SDS011;32542;52.832;13.816;2023-06-19T12:08:13;17.83;;;11.70;;
17253;SDS011;32542;52.832;13.816;2023-06-19T12:11:17;19.15;;;11.93;;
17253;SDS011;32542;52.832;13.816;2023-06-19T12:14:20;15.15;;;11.43;;
17253;SDS011;32542;52.832;13.816;2023-06-19T12:17:23;14.02;;;11.25;;
17253;SDS011;32542;52.832;13.816;2023-06-19T12:20:25;12.95;;;10.75;;
17253;SDS011;32542;52.832;13.816;2023-06-19T12:23:30;16.75;;;11.55;;
17253;SDS011;32542;52.832;13.816;2023-06-19T12:26:33;14.35;;;11.40;;
17253;SDS011;32542;52.832;13.816;2023-06-19T12:29:38;20.40;;;11.23;;
17253;SDS011;32542;52.832;13.816;2023-06-19T12:32:41;15.48;;;11.07;;
17253;SDS011;32542;52.832;13.816;2023-06-19T12:35:44;17.67;;;11.57;;
17253;SDS011;32542;52.832;13.816;2023-06-19T12:38:49;13.68;;;11.77;;
17253;SDS011;32542;52.832;13.816;2023-06-19T12:41:55;14.13;;;10.45;;
17253;SDS011;32542;52.832;13.816;2023-06-19T12:44:58;13.77;;;10.50;;
17253;SDS011;32542;52.832;13.816;2023-06-19T12:48:00;14.18;;;10.45;;
17253;SDS011;32542;52.832;13.816;2023-06-19T12:51:03;12.15;;;9.88;;
17253;SDS011;32542;52.832;13.816;2023-06-19T12:54:08;14.05;;;10.15;;
17253;SDS011;32542;52.832;13.816;2023-06-19T12:57:11;17.60;;;9.73;;
17253;SDS011;32542;52.832;13.816;2023-06-19T13:00:14;14.32;;;10.25;;
17253;SDS011;32542;52.832;13.816;2023-06-19T13:03:17;12.55;;;9.90;;
17253;SDS011;32542;52.832;13.816;2023-06-19T13:06:21;12.82;;;9.38;;
17253;SDS011;32542;52.832;13.816;2023-06-19T13:09:25;14.43;;;9.25;;
17253;SDS011;32542;52.832;13.816;2023-06-19T13:12:28;13.10;;;10.00;;
17253;SDS011;32542;52.832;13.816;2023-06-19T13:15:31;13.52;;;9.20;;
17253;SDS011;32542;52.832;13.816;2023-06-19T13:18:35;12.68;;;10.05;;
17253;SDS011;32542;52.832;13.816;2023-06-19T13:21:38;15.93;;;9.50;;
17253;SDS011;32542;52.832;13.816;2023-06-19T13:24:42;17.67;;;9.98;;
17253;SDS011;32542;52.832;13.816;2023-06-19T13:27:45;16.13;;;9.90;;
17253;SDS011;32542;52.832;13.816;2023-06-19T13:30:49;15.60;;;10.38;;
17253;SDS011;32542;52.832;13.816;2023-06-19T13:33:52;18.90;;;9.43;;
17253;SDS011;32542;52.832;13.816;2023-06-19T13:36:55;12.77;;;9.48;;
17253;SDS011;32542;52.832;13.816;2023-06-19T13:39:59;14.65;;;9.23;;
17253;SDS011;32542;52.832;13.816;2023-06-19T13:43:02;15.75;;;9.65;;
17253;SDS011;32542;52.832;13.816;2023-06-19T13:46:08;12.88;;;9.10;;
17253;SDS011;32542;52.832;13.816;2023-06-19T13:49:11;13.88;;;9.35;;
17253;SDS011;32542;52.832;13.816;2023-06-19T13:52:15;10.82;;;8.77;;
17253;SDS011;32542;52.832;13.816;2023-06-19T13:55:19;12.68;;;9.05;;
17253;SDS011;32542;52.832;13.816;2023-06-19T13:58:22;13.32;;;8.75;;
17253;SDS011;32542;52.832;13.816;2023-06-19T14:01:25;13.35;;;8.98;;
17253;SDS011;32542;52.832;13.816;2023-06-19T14:04:28;13.05;;;9.02;;
17253;SDS011;32542;52.832;13.816;2023-06-19T14:07:31;14.27;;;8.65;;
17253;SDS011;32542;52.832;13.816;2023-06-19T14:10:35;13.98;;;8.95;;
17253;SDS011;32542;52.832;13.816;2023-06-19T14:13:38;11.30;;;9.27;;
17253;SDS011;32542;52.832;13.816;2023-06-19T14:16:41;8.90;;;7.47;;
17253;SDS011;32542;52.832;13.816;2023-06-19T14:19:44;9.77;;;8.48;;
17253;SDS011;32542;52.832;13.816;2023-06-19T14:22:48;9.23;;;8.20;;
17253;SDS011;32542;52.832;13.816;2023-06-19T14:25:52;14.18;;;8.50;;
17253;SDS011;32542;52.832;13.816;2023-06-19T14:28:55;8.73;;;7.70;;
17253;SDS011;32542;52.832;13.816;2023-06-19T14:32:00;9.35;;;8.35;;
17253;SDS011;32542;52.832;13.816;2023-06-19T14:35:04;11.27;;;8.65;;
17253;SDS011;32542;52.832;13.816;2023-06-19T14:38:07;9.45;;;7.18;;
17253;SDS011;32542;52.832;13.816;2023-06-19T14:41:11;11.00;;;7.75;;
17253;SDS011;32542;52.832;13.816;2023-06-19T14:44:14;8.93;;;7.40;;
17253;SDS011;32542;52.832;13.816;2023-06-19T14:47:17;10.73;;;8.10;;
17253;SDS011;32542;52.832;13.816;2023-06-19T14:50:20;11.07;;;8.00;;
17253;SDS011;32542;52.832;13.816;2023-06-19T14:53:23;8.52;;;7.65;;
17253;SDS011;32542;52.832;13.816;2023-06-19T14:56:28;8.35;;;7.28;;
17253;SDS011;32542;52.832;13.816;2023-06-19T14:59:31;9.20;;;7.03;;
17253;SDS011;32542;52.832;13.816;2023-06-19T15:02:34;9.52;;;7.50;;
17253;SDS011;32542;52.832;13.816;2023-06-19T15:05:41;15.75;;;8.43;;
17253;SDS011;32542;52.832;13.816;2023-06-19T15:08:44;11.98;;;8.95;;
17253;SDS011;32542;52.832;13.816;2023-06-19T15:11:48;15.35;;;7.50;;
17253;SDS011;32542;52.832;13.816;2023-06-19T15:14:51;11.35;;;8.13;;
17253;SDS011;32542;52.832;13.816;2023-06-19T15:17:54;11.10;;;8.20;;
17253;SDS011;32542;52.832;13.816;2023-06-19T15:20:59;12.18;;;8.30;;
17253;SDS011;32542;52.832;13.816;2023-06-19T15:24:02;12.00;;;8.10;;
17253;SDS011;32542;52.832;13.816;2023-06-19T15:27:06;9.27;;;8.32;;
17253;SDS011;32542;52.832;13.816;2023-06-19T15:30:10;12.73;;;8.70;;
17253;SDS011;32542;52.832;13.816;2023-06-19T15:33:13;10.95;;;8.65;;
17253;SDS011;32542;52.832;13.816;2023-06-19T15:36:19;12.70;;;8.98;;
17253;SDS011;32542;52.832;13.816;2023-06-19T15:39:22;11.15;;;9.10;;
17253;SDS011;32542;52.832;13.816;2023-06-19T15:42:27;12.23;;;8.38;;
17253;SDS011;32542;52.832;13.816;2023-06-19T15:45:32;9.95;;;8.35;;
17253;SDS011;32542;52.832;13.816;2023-06-19T15:48:35;11.80;;;8.85;;
17253;SDS011;32542;52.832;13.816;2023-06-19T15:51:38;12.13;;;9.02;;
17253;SDS011;32542;52.832;13.816;2023-06-19T15:54:41;10.80;;;8.93;;
17253;SDS011;32542;52.832;13.816;2023-06-19T15:57:45;13.73;;;8.98;;
17253;SDS011;32542;52.832;13.816;2023-06-19T16:00:48;14.38;;;9.48;;
17253;SDS011;32542;52.832;13.816;2023-06-19T16:03:54;11.38;;;8.77;;
17253;SDS011;32542;52.832;13.816;2023-06-19T16:06:57;11.25;;;8.95;;
17253;SDS011;32542;52.832;13.816;2023-06-19T16:10:00;9.73;;;8.68;;
17253;SDS011;32542;52.832;13.816;2023-06-19T16:13:04;12.40;;;8.70;;
17253;SDS011;32542;52.832;13.816;2023-06-19T16:16:08;9.77;;;8.20;;
17253;SDS011;32542;52.832;13.816;2023-06-19T16:19:11;11.65;;;8.05;;
17253;SDS011;32542;52.832;13.816;2023-06-19T16:22:14;9.60;;;7.82;;
17253;SDS011;32542;52.832;13.816;2023-06-19T16:25:17;10.05;;;7.72;;
17253;SDS011;32542;52.832;13.816;2023-06-19T16:28:21;10.55;;;7.47;;
17253;SDS011;32542;52.832;13.816;2023-06-19T16:31:24;9.40;;;8.38;;
17253;SDS011;32542;52.832;13.816;2023-06-19T16:34:27;12.77;;;7.75;;
17253;SDS011;32542;52.832;13.816;2023-06-19T16:37:30;9.93;;;8.02;;
17253;SDS011;32542;52.832;13.816;2023-06-19T16:40:33;11.70;;;8.93;;
17253;SDS011;32542;52.832;13.816;2023-06-19T16:43:37;9.80;;;8.10;;
17253;SDS011;32542;52.832;13.816;2023-06-19T16:46:40;8.77;;;7.82;;
17253;SDS011;32542;52.832;13.816;2023-06-19T16:49:43;9.23;;;7.82;;
17253;SDS011;32542;52.832;13.816;2023-06-19T16:52:46;11.35;;;7.82;;
17253;SDS011;32542;52.832;13.816;2023-06-19T16:55:50;11.05;;;8.57;;
17253;SDS011;32542;52.832;13.816;2023-06-19T16:58:58;9.50;;;8.27;;
17253;SDS011;32542;52.832;13.816;2023-06-19T17:02:03;9.18;;;7.95;;
17253;SDS011;32542;52.832;13.816;2023-06-19T17:05:07;9.57;;;7.82;;
17253;SDS011;32542;52.832;13.816;2023-06-19T17:08:10;11.60;;;8.57;;
17253;SDS011;32542;52.832;13.816;2023-06-19T17:11:14;10.88;;;7.70;;
17253;SDS011;32542;52.832;13.816;2023-06-19T17:14:22;8.93;;;7.97;;
17253;SDS011;32542;52.832;13.816;2023-06-19T17:17:25;8.85;;;7.85;;
17253;SDS011;32542;52.832;13.816;2023-06-19T17:20:28;11.70;;;7.72;;
17253;SDS011;32542;52.832;13.816;2023-06-19T17:23:31;8.95;;;7.35;;
17253;SDS011;32542;52.832;13.816;2023-06-19T17:26:34;8.65;;;7.53;;
17253;SDS011;32542;52.832;13.816;2023-06-19T17:29:38;9.77;;;7.85;;
17253;SDS011;32542;52.832;13.816;2023-06-19T17:32:41;15.00;;;7.90;;
17253;SDS011;32542;52.832;13.816;2023-06-19T17:35:45;12.27;;;8.50;;
17253;SDS011;32542;52.832;13.816;2023-06-19T17:38:48;9.95;;;8.13;;
17253;SDS011;32542;52.832;13.816;2023-06-19T17:41:51;11.55;;;8.27;;
17253;SDS011;32542;52.832;13.816;2023-06-19T17:44:55;11.48;;;8.02;;
17253;SDS011;32542;52.832;13.816;2023-06-19T17:47:58;14.95;;;8.90;;
17253;SDS011;32542;52.832;13.816;2023-06-19T17:51:03;14.52;;;8.65;;
17253;SDS011;32542;52.832;13.816;2023-06-19T17:54:06;9.77;;;7.75;;
17253;SDS011;32542;52.832;13.816;2023-06-19T17:57:09;11.18;;;8.15;;
17253;SDS011;32542;52.832;13.816;2023-06-19T18:00:14;10.63;;;8.73;;